createdAt,value
2022-10-11T00:00:39.184Z,23.27
2022-10-11T00:03:41.508Z,19.77
2022-10-11T00:06:43.908Z,20.33
2022-10-11T00:09:46.640Z,16.53
2022-10-11T00:12:49.581Z,17.17
2022-10-11T00:15:52.244Z,22.35
2022-10-11T00:18:54.664Z,22.77
2022-10-11T00:21:57.030Z,26.30
2022-10-11T00:24:59.510Z,22.90
2022-10-11T00:28:01.905Z,17.88
2022-10-11T00:31:13.643Z,22.30
2022-10-11T00:34:18.097Z,17.90
2022-10-11T00:37:20.615Z,17.53
2022-10-11T00:40:23.028Z,19.87
2022-10-11T00:43:29.106Z,17.75
2022-10-11T00:46:31.875Z,17.15
2022-10-11T00:49:37.889Z,18.25
2022-10-11T00:52:49.902Z,19.47
2022-10-11T00:56:00.335Z,19.27
2022-10-11T00:59:06.427Z,20.23
2022-10-11T01:02:09.925Z,18.60
2022-10-11T01:05:32.209Z,20.08
2022-10-11T01:08:34.674Z,16.37
2022-10-11T01:11:41.188Z,17.43
2022-10-11T01:14:46.580Z,18.70
2022-10-11T01:18:09.172Z,16.25
2022-10-11T01:21:26.092Z,16.63
2022-10-11T01:24:43.484Z,15.80
2022-10-11T01:27:55.752Z,19.47
2022-10-11T01:31:04.788Z,16.80
2022-10-11T01:34:33.627Z,15.65
2022-10-11T01:37:53.730Z,15.85
2022-10-11T01:41:00.239Z,15.10
2022-10-11T01:44:05.380Z,14.30
2022-10-11T01:47:07.740Z,17.08
2022-10-11T01:50:46.276Z,16.58
2022-10-11T01:54:07.367Z,17.23
2022-10-11T01:57:28.237Z,14.67
2022-10-11T02:01:00.585Z,16.33
2022-10-11T02:04:37.603Z,14.15
2022-10-11T02:07:57.649Z,14.73
2022-10-11T02:11:20.230Z,17.90
2022-10-11T02:14:26.963Z,15.50
2022-10-11T02:17:35.650Z,19.30
2022-10-11T02:20:41.344Z,17.92
2022-10-11T02:23:53.463Z,18.77
2022-10-11T02:26:58.831Z,19.70
2022-10-11T02:30:04.115Z,15.63
2022-10-11T02:33:11.278Z,16.17
2022-10-11T02:36:55.619Z,17.33
2022-10-11T02:40:07.072Z,18.48
2022-10-11T02:43:17.973Z,19.40
2022-10-11T02:46:21.554Z,19.33
2022-10-11T02:49:23.980Z,25.47
2022-10-11T02:52:27.140Z,21.35
2022-10-11T02:55:29.497Z,25.05
2022-10-11T02:58:31.921Z,21.50
2022-10-11T03:01:34.389Z,19.93
2022-10-11T03:04:36.884Z,21.37
2022-10-11T03:07:39.238Z,19.65
2022-10-11T03:10:42.516Z,18.23
2022-10-11T03:13:44.939Z,20.48
2022-10-11T03:16:47.270Z,19.47
2022-10-11T03:19:49.859Z,23.43
2022-10-11T03:22:52.188Z,21.63
2022-10-11T03:25:54.621Z,21.23
2022-10-11T03:28:57.109Z,17.27
2022-10-11T03:31:59.545Z,23.50
2022-10-11T03:35:01.898Z,16.23
2022-10-11T03:38:04.334Z,18.05
2022-10-11T03:41:07.127Z,19.45
2022-10-11T03:44:09.466Z,21.35
2022-10-11T03:47:12.782Z,27.20
2022-10-11T03:50:15.170Z,21.33
2022-10-11T03:53:17.737Z,20.92
2022-10-11T03:56:20.100Z,20.10
2022-10-11T03:59:22.429Z,20.30
2022-10-11T04:02:25.085Z,21.20
2022-10-11T04:05:27.521Z,21.83
2022-10-11T04:08:29.986Z,19.95
2022-10-11T04:11:32.785Z,17.52
2022-10-11T04:14:35.170Z,19.05
2022-10-11T04:17:37.515Z,20.03
2022-10-11T04:20:40.091Z,19.07
2022-10-11T04:23:42.490Z,17.38
2022-10-11T04:26:44.886Z,19.52
2022-10-11T04:29:47.189Z,22.15
2022-10-11T04:32:49.567Z,24.43
2022-10-11T04:35:56.203Z,18.83
2022-10-11T04:38:58.684Z,19.52
2022-10-11T04:42:01.001Z,18.33
2022-10-11T04:45:03.683Z,19.20
2022-10-11T04:48:06.391Z,21.33
2022-10-11T04:51:08.854Z,23.87
2022-10-11T04:54:11.222Z,20.33
2022-10-11T04:57:13.550Z,20.90
2022-10-11T05:00:16.284Z,23.80
2022-10-11T05:03:18.600Z,20.17
2022-10-11T05:06:21.162Z,21.80
2022-10-11T05:09:24.060Z,37.88
2022-10-11T05:12:27.050Z,36.28
2022-10-11T05:15:29.695Z,35.10
2022-10-11T05:18:32.165Z,33.73
2022-10-11T05:21:46.447Z,46.93
2022-10-11T05:24:54.857Z,35.58
2022-10-11T05:27:57.638Z,39.88
2022-10-11T05:31:00.414Z,40.03
2022-10-11T05:34:02.989Z,31.20
2022-10-11T05:37:05.538Z,31.13
2022-10-11T05:40:08.807Z,31.60
2022-10-11T05:43:12.012Z,27.40
2022-10-11T05:46:15.265Z,21.30
2022-10-11T05:49:17.833Z,20.40
2022-10-11T05:52:21.554Z,24.97
2022-10-11T05:55:24.480Z,29.35
2022-10-11T05:58:27.212Z,31.45
2022-10-11T06:03:32.074Z,29.65
2022-10-11T06:06:53.251Z,30.05
2022-10-11T06:10:14.210Z,24.20
2022-10-11T06:13:35.885Z,22.90
2022-10-11T06:16:56.936Z,21.27
2022-10-11T06:20:18.028Z,23.85
2022-10-11T06:23:39.210Z,23.77
2022-10-11T06:27:00.484Z,22.50
2022-10-11T06:30:21.564Z,23.43
2022-10-11T06:33:42.472Z,27.95
2022-10-11T06:37:03.684Z,28.15
2022-10-11T06:40:24.523Z,27.77
2022-10-11T06:43:46.112Z,26.65
2022-10-11T06:47:07.766Z,22.47
2022-10-11T06:50:54.518Z,25.73
2022-10-11T06:54:10.191Z,25.23
2022-10-11T06:57:30.982Z,24.05
2022-10-11T07:00:51.879Z,23.85
2022-10-11T07:04:12.827Z,22.63
2022-10-11T07:07:33.592Z,29.77
2022-10-11T07:11:00.113Z,27.52
2022-10-11T07:14:21.140Z,28.83
2022-10-11T07:17:42.318Z,30.85
2022-10-11T07:21:04.454Z,20.37
2022-10-11T07:24:25.740Z,20.27
2022-10-11T07:27:46.540Z,20.35
2022-10-11T07:31:16.690Z,23.88
2022-10-11T07:34:37.629Z,21.42
2022-10-11T07:37:58.599Z,20.60
2022-10-11T07:41:19.911Z,21.27
2022-10-11T07:44:40.888Z,29.05
2022-10-11T07:48:01.853Z,23.23
2022-10-11T07:51:24.591Z,22.25
2022-10-11T07:54:48.726Z,25.40
2022-10-11T07:58:11.154Z,20.15
2022-10-11T08:01:33.189Z,20.10
2022-10-11T08:04:54.391Z,20.58
2022-10-11T08:08:15.753Z,22.90
2022-10-11T08:11:37.727Z,15.43
2022-10-11T08:14:58.937Z,20.30
2022-10-11T08:18:20.268Z,17.52
2022-10-11T08:21:41.404Z,20.02
2022-10-11T08:25:02.475Z,19.38
2022-10-11T08:28:23.221Z,21.43
2022-10-11T08:31:47.326Z,19.60
2022-10-11T08:35:08.636Z,18.73
2022-10-11T08:38:29.718Z,19.27
2022-10-11T08:42:11.329Z,19.58
2022-10-11T08:45:44.345Z,18.03
2022-10-11T08:49:07.545Z,16.30
2022-10-11T08:52:34.818Z,18.98
2022-10-11T08:55:56.080Z,24.15
2022-10-11T08:59:39.966Z,18.17
2022-10-11T09:03:29.760Z,21.17
2022-10-11T09:07:26.816Z,15.93
2022-10-11T09:10:48.157Z,17.27
2022-10-11T09:13:56.503Z,17.67
2022-10-11T09:17:37.562Z,18.08
2022-10-11T09:20:40.236Z,17.20
2022-10-11T09:23:56.715Z,17.88
2022-10-11T09:27:09.929Z,16.02
2022-10-11T09:30:14.883Z,15.82
2022-10-11T09:33:18.807Z,20.25
2022-10-11T09:36:34.311Z,18.30
2022-10-11T09:39:42.199Z,12.80
2022-10-11T09:42:44.843Z,14.65
2022-10-11T09:45:49.616Z,14.43
2022-10-11T09:48:56.271Z,14.52
2022-10-11T09:52:02.440Z,17.60
2022-10-11T09:55:05.315Z,14.00
2022-10-11T09:58:40.307Z,17.38
2022-10-11T10:01:42.782Z,16.48
2022-10-11T10:05:07.135Z,15.07
2022-10-11T10:08:09.727Z,15.37
2022-10-11T10:11:12.743Z,14.30
2022-10-11T10:14:21.968Z,12.35
2022-10-11T10:17:24.410Z,16.65
2022-10-11T10:20:36.146Z,15.23
2022-10-11T10:23:38.873Z,15.90
2022-10-11T10:26:41.359Z,22.25
2022-10-11T10:30:00.666Z,16.10
2022-10-11T10:33:10.916Z,16.38
2022-10-11T10:36:21.842Z,18.67
2022-10-11T10:39:33.325Z,13.50
2022-10-11T10:42:36.411Z,16.45
2022-10-11T10:45:56.641Z,16.58
2022-10-11T10:49:51.887Z,15.00
2022-10-11T10:52:55.470Z,15.55
2022-10-11T10:56:22.224Z,17.20
2022-10-11T11:00:05.897Z,15.40
2022-10-11T11:03:47.891Z,13.00
2022-10-11T11:06:57.210Z,13.23
2022-10-11T11:10:32.824Z,14.77
2022-10-11T11:14:12.056Z,19.33
2022-10-11T11:17:22.898Z,19.73
2022-10-11T11:20:59.830Z,14.70
2022-10-11T11:24:08.879Z,18.17
2022-10-11T11:27:40.973Z,15.02
2022-10-11T11:31:04.806Z,16.97
2022-10-11T11:34:45.783Z,16.25
2022-10-11T11:37:54.099Z,19.25
2022-10-11T11:41:09.183Z,16.85
2022-10-11T11:44:23.852Z,15.70
2022-10-11T11:47:36.531Z,16.83
2022-10-11T11:50:43.818Z,17.95
2022-10-11T11:54:19.316Z,19.45
2022-10-11T11:57:38.871Z,20.27
2022-10-11T12:01:03.240Z,15.25
2022-10-11T12:04:36.107Z,18.33
2022-10-11T12:07:58.669Z,13.18
2022-10-11T12:11:08.653Z,15.10
2022-10-11T12:14:41.501Z,17.90
2022-10-11T12:17:56.058Z,20.35
2022-10-11T12:21:08.590Z,18.50
2022-10-11T12:24:21.542Z,12.43
2022-10-11T12:27:43.236Z,14.70
2022-10-11T12:30:50.768Z,16.17
2022-10-11T12:34:15.067Z,18.20
2022-10-11T12:37:17.525Z,16.73
2022-10-11T12:40:41.972Z,18.92
2022-10-11T12:43:50.495Z,18.65
2022-10-11T12:46:57.733Z,14.98
2022-10-11T12:50:27.983Z,14.23
2022-10-11T12:53:33.380Z,18.27
2022-10-11T12:56:42.141Z,15.13
2022-10-11T12:59:45.572Z,17.35
2022-10-11T13:02:49.493Z,16.75
2022-10-11T13:05:56.160Z,19.13
2022-10-11T13:09:09.695Z,25.07
2022-10-11T13:12:19.470Z,26.67
2022-10-11T13:15:24.293Z,27.40
2022-10-11T13:18:27.178Z,23.80
2022-10-11T13:21:34.641Z,17.45
2022-10-11T13:24:39.645Z,19.40
2022-10-11T13:27:42.741Z,21.20
2022-10-11T13:30:48.628Z,23.52
2022-10-11T13:33:55.135Z,29.45
2022-10-11T13:36:58.618Z,22.58
2022-10-11T13:40:01.197Z,28.07
2022-10-11T13:43:05.808Z,31.60
2022-10-11T13:46:17.507Z,18.15
2022-10-11T13:49:29.323Z,20.58
2022-10-11T13:52:32.484Z,23.15
2022-10-11T13:55:47.663Z,18.30
2022-10-11T13:58:52.755Z,19.00
2022-10-11T14:02:01.271Z,22.35
2022-10-11T14:05:03.817Z,24.67
2022-10-11T14:08:19.554Z,31.13
2022-10-11T14:11:39.850Z,29.97
2022-10-11T14:14:43.407Z,24.10
2022-10-11T14:17:52.504Z,19.63
2022-10-11T14:20:54.907Z,23.90
2022-10-11T14:24:00.844Z,18.70
2022-10-11T14:27:05.777Z,16.70
2022-10-11T14:30:27.467Z,20.17
2022-10-11T14:33:30.224Z,16.10
2022-10-11T14:36:32.696Z,19.55
2022-10-11T14:39:35.342Z,19.10
2022-10-11T14:42:37.677Z,20.47
2022-10-11T14:45:40.125Z,21.67
2022-10-11T14:48:54.953Z,22.88
2022-10-11T14:51:59.388Z,23.85
2022-10-11T14:55:02.218Z,24.52
2022-10-11T14:58:06.399Z,20.67
2022-10-11T15:01:16.160Z,26.25
2022-10-11T15:04:24.224Z,42.45
2022-10-11T15:07:26.740Z,47.97
2022-10-11T15:10:35.991Z,46.40
2022-10-11T15:13:38.453Z,50.33
2022-10-11T15:16:41.385Z,43.45
2022-10-11T15:19:43.764Z,42.15
2022-10-11T15:22:46.161Z,36.00
2022-10-11T15:25:48.543Z,39.42
2022-10-11T15:28:52.297Z,36.07
2022-10-11T15:31:54.796Z,37.00
2022-10-11T15:34:57.210Z,30.38
2022-10-11T15:38:00.269Z,30.13
2022-10-11T15:41:02.831Z,27.88
2022-10-11T15:44:05.342Z,23.47
2022-10-11T15:47:09.038Z,33.75
2022-10-11T15:50:13.805Z,37.88
2022-10-11T15:53:19.103Z,51.67
2022-10-11T15:56:21.472Z,69.38
2022-10-11T15:59:23.826Z,52.63
2022-10-11T16:02:26.400Z,92.75
2022-10-11T16:05:29.159Z,87.60
2022-10-11T16:08:31.710Z,122.97
2022-10-11T16:11:34.312Z,110.47
2022-10-11T16:14:36.702Z,127.27
2022-10-11T16:17:39.195Z,117.20
2022-10-11T16:20:45.195Z,81.47
2022-10-11T16:23:47.630Z,74.38
2022-10-11T16:26:50.896Z,83.95
2022-10-11T16:29:53.941Z,79.30
2022-10-11T16:32:56.525Z,77.30
2022-10-11T16:36:18.861Z,68.15
2022-10-11T16:39:21.460Z,66.72
2022-10-11T16:42:24.048Z,65.95
2022-10-11T16:45:26.502Z,61.53
2022-10-11T16:48:28.940Z,75.80
2022-10-11T16:51:31.380Z,60.13
2022-10-11T16:54:33.860Z,52.28
2022-10-11T16:57:37.815Z,58.95
2022-10-11T17:00:42.678Z,57.93
2022-10-11T17:03:45.306Z,51.15
2022-10-11T17:06:47.899Z,42.17
2022-10-11T17:09:50.723Z,34.00
2022-10-11T17:12:55.117Z,36.55
2022-10-11T17:15:57.912Z,38.90
2022-10-11T17:19:00.872Z,34.60
2022-10-11T17:22:03.258Z,39.35
2022-10-11T17:25:07.002Z,50.20
2022-10-11T17:28:09.804Z,37.78
2022-10-11T17:31:12.161Z,132.30
2022-10-11T17:34:16.149Z,79.10
2022-10-11T17:37:18.725Z,46.80
2022-10-11T17:40:22.023Z,50.78
2022-10-11T17:43:24.882Z,41.03
2022-10-11T17:46:32.284Z,49.40
2022-10-11T17:49:34.810Z,80.72
2022-10-11T17:52:37.247Z,69.63
2022-10-11T17:55:43.742Z,49.38
2022-10-11T17:58:47.074Z,38.10
2022-10-11T18:01:50.282Z,67.73
2022-10-11T18:04:52.716Z,90.18
2022-10-11T18:07:55.691Z,114.53
2022-10-11T18:10:58.093Z,125.72
2022-10-11T18:14:00.577Z,86.25
2022-10-11T18:17:03.611Z,78.90
2022-10-11T18:20:06.626Z,46.70
2022-10-11T18:23:09.089Z,46.22
2022-10-11T18:26:16.591Z,30.58
2022-10-11T18:29:19.082Z,22.23
2022-10-11T18:32:21.488Z,23.43
2022-10-11T18:35:25.087Z,30.90
2022-10-11T18:38:27.731Z,27.52
2022-10-11T18:41:32.161Z,25.10
2022-10-11T18:44:34.686Z,28.23
2022-10-11T18:47:37.424Z,35.80
2022-10-11T18:50:40.434Z,55.17
2022-10-11T18:53:42.760Z,48.80
2022-10-11T18:56:45.292Z,42.25
2022-10-11T18:59:47.827Z,43.85
2022-10-11T19:02:51.002Z,49.77
2022-10-11T19:05:53.474Z,51.28
2022-10-11T19:09:04.888Z,49.13
2022-10-11T19:12:07.552Z,44.97
2022-10-11T19:15:11.451Z,45.28
2022-10-11T19:18:15.938Z,47.53
2022-10-11T19:21:22.912Z,50.05
2022-10-11T19:24:28.325Z,48.50
2022-10-11T19:27:30.683Z,34.55
2022-10-11T19:30:33.612Z,34.85
2022-10-11T19:33:36.756Z,30.30
2022-10-11T19:36:42.290Z,32.15
2022-10-11T19:39:44.677Z,26.77
2022-10-11T19:42:47.102Z,30.60
2022-10-11T19:45:49.491Z,30.08
2022-10-11T19:48:52.279Z,26.27
2022-10-11T19:51:55.467Z,24.33
2022-10-11T19:54:58.001Z,28.65
2022-10-11T19:58:03.406Z,21.15
2022-10-11T20:01:12.152Z,22.92
2022-10-11T20:04:33.098Z,22.60
2022-10-11T20:07:37.119Z,27.15
2022-10-11T20:10:39.733Z,21.40
2022-10-11T20:13:42.255Z,26.85
2022-10-11T20:16:44.657Z,21.05
2022-10-11T20:19:47.029Z,22.90
2022-10-11T20:22:49.437Z,17.92
2022-10-11T20:26:02.018Z,16.30
2022-10-11T20:29:04.535Z,13.70
2022-10-11T20:32:06.880Z,18.58
2022-10-11T20:35:10.444Z,18.97
2022-10-11T20:38:12.816Z,12.82
2022-10-11T20:41:18.675Z,16.08
2022-10-11T20:44:21.035Z,13.77
2022-10-11T20:47:23.361Z,11.85
2022-10-11T20:50:25.750Z,15.20
2022-10-11T20:53:29.366Z,14.38
2022-10-11T20:56:32.412Z,16.17
2022-10-11T20:59:34.751Z,14.10
2022-10-11T21:02:38.020Z,13.88
2022-10-11T21:05:40.951Z,15.90
2022-10-11T21:08:43.375Z,16.77
2022-10-11T21:11:46.027Z,17.90
2022-10-11T21:14:48.477Z,14.50
2022-10-11T21:17:51.420Z,19.55
2022-10-11T21:20:53.804Z,15.43
2022-10-11T21:24:01.511Z,14.88
2022-10-11T21:27:03.864Z,17.52
2022-10-11T21:30:06.680Z,19.30
2022-10-11T21:33:09.100Z,15.15
2022-10-11T21:36:17.614Z,12.73
2022-10-11T21:39:20.057Z,18.60
2022-10-11T21:42:27.136Z,16.20
2022-10-11T21:45:31.687Z,15.90
2022-10-11T21:48:34.232Z,18.08
2022-10-11T21:51:36.668Z,14.47
2022-10-11T21:54:39.255Z,19.85
2022-10-11T21:57:42.867Z,18.23
2022-10-11T22:00:46.907Z,14.55
2022-10-11T22:03:49.476Z,18.80
2022-10-11T22:06:51.855Z,15.47
2022-10-11T22:09:54.309Z,16.98
2022-10-11T22:12:56.978Z,19.67
2022-10-11T22:16:06.985Z,19.23
2022-10-11T22:19:09.459Z,17.52
2022-10-11T22:22:11.870Z,16.00
2022-10-11T22:25:14.261Z,20.25
2022-10-11T22:28:16.665Z,18.08
2022-10-11T22:31:20.321Z,19.92
2022-10-11T22:34:22.782Z,19.73
2022-10-11T22:37:25.127Z,22.00
2022-10-11T22:40:27.548Z,17.88
2022-10-11T22:43:30.065Z,17.85
2022-10-11T22:46:32.459Z,16.83
2022-10-11T22:49:34.950Z,16.73
2022-10-11T22:52:37.442Z,16.07
2022-10-11T22:55:40.314Z,16.05
2022-10-11T22:58:42.696Z,19.25
2022-10-11T23:01:45.043Z,15.98
2022-10-11T23:04:47.879Z,18.27
2022-10-11T23:07:50.568Z,15.50
2022-10-11T23:10:53.337Z,25.30
2022-10-11T23:13:55.693Z,19.23
2022-10-11T23:16:58.092Z,16.83
2022-10-11T23:20:00.617Z,17.33
2022-10-11T23:23:02.971Z,14.60
2022-10-11T23:26:12.141Z,16.38
2022-10-11T23:29:14.539Z,16.95
2022-10-11T23:32:16.980Z,18.10
2022-10-11T23:35:19.358Z,18.70
2022-10-11T23:38:21.954Z,14.60
2022-10-11T23:41:26.839Z,14.43
2022-10-11T23:44:29.198Z,12.00
2022-10-11T23:47:31.683Z,11.30
2022-10-11T23:50:34.739Z,12.73
2022-10-11T23:53:37.521Z,18.13
2022-10-11T23:56:40.017Z,13.88
2022-10-11T23:59:42.355Z,12.80
